sensor_id;sensor_type;location;lat;lon;timestamp;P1;durP1;ratioP1;P2;durP2;ratioP2
39128;SDS011;24864;49.940;19.770;2023-11-21T00:01:02;9.32;;;5.40;;
39128;SDS011;24864;49.940;19.770;2023-11-21T00:03:39;10.27;;;5.72;;
39128;SDS011;24864;49.940;19.770;2023-11-21T00:06:08;9.98;;;6.85;;
39128;SDS011;24864;49.940;19.770;2023-11-21T00:08:37;9.00;;;6.45;;
39128;SDS011;24864;49.940;19.770;2023-11-21T00:11:05;14.93;;;7.75;;
39128;SDS011;24864;49.940;19.770;2023-11-21T00:13:34;14.60;;;8.07;;
39128;SDS011;24864;49.940;19.770;2023-11-21T00:16:03;12.80;;;7.95;;
39128;SDS011;24864;49.940;19.770;2023-11-21T00:18:32;9.95;;;5.72;;
39128;SDS011;24864;49.940;19.770;2023-11-21T00:21:02;10.65;;;6.57;;
39128;SDS011;24864;49.940;19.770;2023-11-21T00:23:30;10.95;;;7.57;;
39128;SDS011;24864;49.940;19.770;2023-11-21T00:25:58;9.50;;;6.85;;
39128;SDS011;24864;49.940;19.770;2023-11-21T00:28:27;9.40;;;7.50;;
39128;SDS011;24864;49.940;19.770;2023-11-21T00:30:56;9.60;;;6.55;;
39128;SDS011;24864;49.940;19.770;2023-11-21T00:33:25;11.98;;;6.63;;
39128;SDS011;24864;49.940;19.770;2023-11-21T00:35:54;14.23;;;6.50;;
39128;SDS011;24864;49.940;19.770;2023-11-21T00:38:24;9.13;;;5.75;;
39128;SDS011;24864;49.940;19.770;2023-11-21T00:40:53;6.72;;;5.85;;
39128;SDS011;24864;49.940;19.770;2023-11-21T00:43:23;8.93;;;5.65;;
39128;SDS011;24864;49.940;19.770;2023-11-21T00:45:51;7.50;;;5.63;;
39128;SDS011;24864;49.940;19.770;2023-11-21T00:48:20;8.63;;;5.75;;
39128;SDS011;24864;49.940;19.770;2023-11-21T00:50:48;8.85;;;5.13;;
39128;SDS011;24864;49.940;19.770;2023-11-21T00:53:17;7.68;;;4.65;;
39128;SDS011;24864;49.940;19.770;2023-11-21T00:55:46;12.25;;;5.60;;
39128;SDS011;24864;49.940;19.770;2023-11-21T00:58:15;8.35;;;4.53;;
39128;SDS011;24864;49.940;19.770;2023-11-21T01:00:43;9.10;;;4.80;;
39128;SDS011;24864;49.940;19.770;2023-11-21T01:03:12;8.48;;;4.90;;
39128;SDS011;24864;49.940;19.770;2023-11-21T01:05:40;6.40;;;4.75;;
39128;SDS011;24864;49.940;19.770;2023-11-21T01:08:08;8.40;;;4.63;;
39128;SDS011;24864;49.940;19.770;2023-11-21T01:10:37;8.68;;;4.47;;
39128;SDS011;24864;49.940;19.770;2023-11-21T01:13:07;8.65;;;5.20;;
39128;SDS011;24864;49.940;19.770;2023-11-21T01:15:35;7.35;;;5.15;;
39128;SDS011;24864;49.940;19.770;2023-11-21T01:18:04;9.75;;;4.82;;
39128;SDS011;24864;49.940;19.770;2023-11-21T01:20:33;5.80;;;4.65;;
39128;SDS011;24864;49.940;19.770;2023-11-21T01:23:01;7.30;;;4.85;;
39128;SDS011;24864;49.940;19.770;2023-11-21T01:25:29;6.47;;;4.78;;
39128;SDS011;24864;49.940;19.770;2023-11-21T01:27:58;6.90;;;4.90;;
39128;SDS011;24864;49.940;19.770;2023-11-21T01:30:28;9.70;;;5.40;;
39128;SDS011;24864;49.940;19.770;2023-11-21T01:32:56;7.93;;;5.07;;
39128;SDS011;24864;49.940;19.770;2023-11-21T01:35:24;10.02;;;5.65;;
39128;SDS011;24864;49.940;19.770;2023-11-21T01:37:53;8.18;;;5.60;;
39128;SDS011;24864;49.940;19.770;2023-11-21T01:40:21;8.57;;;5.30;;
39128;SDS011;24864;49.940;19.770;2023-11-21T01:42:52;10.93;;;6.88;;
39128;SDS011;24864;49.940;19.770;2023-11-21T01:45:21;11.88;;;6.35;;
39128;SDS011;24864;49.940;19.770;2023-11-21T01:47:53;8.82;;;5.95;;
39128;SDS011;24864;49.940;19.770;2023-11-21T01:50:23;10.07;;;5.65;;
39128;SDS011;24864;49.940;19.770;2023-11-21T01:52:52;11.93;;;6.32;;
39128;SDS011;24864;49.940;19.770;2023-11-21T01:55:20;11.10;;;6.07;;
39128;SDS011;24864;49.940;19.770;2023-11-21T01:57:54;10.93;;;5.68;;
39128;SDS011;24864;49.940;19.770;2023-11-21T02:03:20;14.90;;;6.28;;
39128;SDS011;24864;49.940;19.770;2023-11-21T02:05:49;8.57;;;4.93;;
39128;SDS011;24864;49.940;19.770;2023-11-21T02:08:18;7.50;;;5.35;;
39128;SDS011;24864;49.940;19.770;2023-11-21T02:10:47;10.23;;;5.10;;
39128;SDS011;24864;49.940;19.770;2023-11-21T02:13:15;8.60;;;5.80;;
39128;SDS011;24864;49.940;19.770;2023-11-21T02:15:44;9.82;;;5.15;;
39128;SDS011;24864;49.940;19.770;2023-11-21T02:18:14;11.90;;;7.13;;
39128;SDS011;24864;49.940;19.770;2023-11-21T02:20:44;11.23;;;5.93;;
39128;SDS011;24864;49.940;19.770;2023-11-21T02:23:15;11.82;;;5.78;;
39128;SDS011;24864;49.940;19.770;2023-11-21T02:25:45;12.30;;;5.87;;
39128;SDS011;24864;49.940;19.770;2023-11-21T02:28:13;8.85;;;5.20;;
39128;SDS011;24864;49.940;19.770;2023-11-21T02:30:53;9.82;;;5.10;;
39128;SDS011;24864;49.940;19.770;2023-11-21T02:33:24;7.97;;;5.03;;
39128;SDS011;24864;49.940;19.770;2023-11-21T02:35:53;18.58;;;5.78;;
39128;SDS011;24864;49.940;19.770;2023-11-21T02:38:23;10.27;;;4.50;;
39128;SDS011;24864;49.940;19.770;2023-11-21T02:40:51;8.73;;;4.57;;
39128;SDS011;24864;49.940;19.770;2023-11-21T02:43:20;9.55;;;4.90;;
39128;SDS011;24864;49.940;19.770;2023-11-21T02:45:48;8.73;;;4.25;;
39128;SDS011;24864;49.940;19.770;2023-11-21T02:48:17;7.72;;;4.55;;
39128;SDS011;24864;49.940;19.770;2023-11-21T02:50:45;5.35;;;3.50;;
39128;SDS011;24864;49.940;19.770;2023-11-21T02:53:14;7.40;;;4.32;;
39128;SDS011;24864;49.940;19.770;2023-11-21T02:55:43;8.52;;;3.88;;
39128;SDS011;24864;49.940;19.770;2023-11-21T02:58:12;12.05;;;4.22;;
39128;SDS011;24864;49.940;19.770;2023-11-21T03:00:41;5.72;;;3.88;;
39128;SDS011;24864;49.940;19.770;2023-11-21T03:03:09;6.72;;;3.83;;
39128;SDS011;24864;49.940;19.770;2023-11-21T03:05:38;8.95;;;3.90;;
39128;SDS011;24864;49.940;19.770;2023-11-21T03:08:06;9.40;;;4.03;;
39128;SDS011;24864;49.940;19.770;2023-11-21T03:10:35;4.90;;;3.80;;
39128;SDS011;24864;49.940;19.770;2023-11-21T03:13:05;10.98;;;4.47;;
39128;SDS011;24864;49.940;19.770;2023-11-21T03:15:33;7.20;;;4.40;;
39128;SDS011;24864;49.940;19.770;2023-11-21T03:18:02;7.10;;;3.80;;
39128;SDS011;24864;49.940;19.770;2023-11-21T03:20:31;6.35;;;3.60;;
39128;SDS011;24864;49.940;19.770;2023-11-21T03:23:01;10.25;;;4.13;;
39128;SDS011;24864;49.940;19.770;2023-11-21T03:25:30;5.32;;;3.53;;
39128;SDS011;24864;49.940;19.770;2023-11-21T03:27:58;7.28;;;4.03;;
39128;SDS011;24864;49.940;19.770;2023-11-21T03:30:28;8.13;;;4.00;;
39128;SDS011;24864;49.940;19.770;2023-11-21T03:32:56;9.02;;;3.72;;
39128;SDS011;24864;49.940;19.770;2023-11-21T03:35:25;8.15;;;3.53;;
39128;SDS011;24864;49.940;19.770;2023-11-21T03:37:54;8.48;;;3.85;;
39128;SDS011;24864;49.940;19.770;2023-11-21T03:40:23;6.07;;;3.42;;
39128;SDS011;24864;49.940;19.770;2023-11-21T03:42:51;6.45;;;4.22;;
39128;SDS011;24864;49.940;19.770;2023-11-21T03:45:19;13.07;;;4.38;;
39128;SDS011;24864;49.940;19.770;2023-11-21T03:47:49;7.53;;;3.83;;
39128;SDS011;24864;49.940;19.770;2023-11-21T03:50:18;7.00;;;4.40;;
39128;SDS011;24864;49.940;19.770;2023-11-21T03:52:46;6.28;;;3.70;;
39128;SDS011;24864;49.940;19.770;2023-11-21T03:55:14;7.05;;;4.00;;
39128;SDS011;24864;49.940;19.770;2023-11-21T03:57:43;6.88;;;4.20;;
39128;SDS011;24864;49.940;19.770;2023-11-21T04:00:12;9.35;;;4.65;;
39128;SDS011;24864;49.940;19.770;2023-11-21T04:02:40;10.57;;;4.57;;
39128;SDS011;24864;49.940;19.770;2023-11-21T04:05:11;10.23;;;4.57;;
39128;SDS011;24864;49.940;19.770;2023-11-21T04:07:39;11.43;;;4.93;;
39128;SDS011;24864;49.940;19.770;2023-11-21T04:10:08;8.48;;;3.90;;
39128;SDS011;24864;49.940;19.770;2023-11-21T04:12:39;10.40;;;4.28;;
39128;SDS011;24864;49.940;19.770;2023-11-21T04:15:08;9.18;;;3.95;;
39128;SDS011;24864;49.940;19.770;2023-11-21T04:17:37;10.32;;;3.75;;
39128;SDS011;24864;49.940;19.770;2023-11-21T04:20:06;8.98;;;3.80;;
39128;SDS011;24864;49.940;19.770;2023-11-21T04:22:40;7.03;;;4.13;;
39128;SDS011;24864;49.940;19.770;2023-11-21T04:25:12;6.90;;;4.25;;
39128;SDS011;24864;49.940;19.770;2023-11-21T04:27:43;9.00;;;4.55;;
39128;SDS011;24864;49.940;19.770;2023-11-21T04:30:12;11.18;;;3.88;;
39128;SDS011;24864;49.940;19.770;2023-11-21T04:32:41;5.28;;;3.50;;
39128;SDS011;24864;49.940;19.770;2023-11-21T04:35:10;9.15;;;4.93;;
39128;SDS011;24864;49.940;19.770;2023-11-21T04:37:40;9.88;;;4.90;;
39128;SDS011;24864;49.940;19.770;2023-11-21T04:40:09;9.15;;;5.43;;
39128;SDS011;24864;49.940;19.770;2023-11-21T04:42:38;12.07;;;5.60;;
39128;SDS011;24864;49.940;19.770;2023-11-21T04:45:07;12.20;;;5.70;;
39128;SDS011;24864;49.940;19.770;2023-11-21T04:47:39;10.52;;;5.40;;
39128;SDS011;24864;49.940;19.770;2023-11-21T04:50:08;7.32;;;4.68;;
39128;SDS011;24864;49.940;19.770;2023-11-21T04:52:37;9.02;;;5.38;;
39128;SDS011;24864;49.940;19.770;2023-11-21T04:55:07;13.95;;;6.13;;
39128;SDS011;24864;49.940;19.770;2023-11-21T04:57:38;10.18;;;6.15;;
39128;SDS011;24864;49.940;19.770;2023-11-21T05:00:08;12.38;;;5.65;;
39128;SDS011;24864;49.940;19.770;2023-11-21T05:02:38;11.38;;;6.45;;
39128;SDS011;24864;49.940;19.770;2023-11-21T05:05:07;9.93;;;6.25;;
39128;SDS011;24864;49.940;19.770;2023-11-21T05:07:38;13.73;;;7.30;;
39128;SDS011;24864;49.940;19.770;2023-11-21T05:10:08;16.30;;;7.95;;
39128;SDS011;24864;49.940;19.770;2023-11-21T05:12:39;11.43;;;7.53;;
39128;SDS011;24864;49.940;19.770;2023-11-21T05:15:09;13.55;;;7.63;;
39128;SDS011;24864;49.940;19.770;2023-11-21T05:17:38;14.20;;;8.55;;
39128;SDS011;24864;49.940;19.770;2023-11-21T05:20:08;16.05;;;8.93;;
39128;SDS011;24864;49.940;19.770;2023-11-21T05:22:38;19.45;;;9.27;;
39128;SDS011;24864;49.940;19.770;2023-11-21T05:25:06;16.98;;;9.23;;
39128;SDS011;24864;49.940;19.770;2023-11-21T05:27:38;20.55;;;9.30;;
39128;SDS011;24864;49.940;19.770;2023-11-21T05:30:06;18.35;;;9.15;;
39128;SDS011;24864;49.940;19.770;2023-11-21T05:35:07;22.58;;;11.20;;
39128;SDS011;24864;49.940;19.770;2023-11-21T05:37:38;22.27;;;11.45;;
39128;SDS011;24864;49.940;19.770;2023-11-21T05:40:09;17.95;;;11.43;;
39128;SDS011;24864;49.940;19.770;2023-11-21T05:42:38;21.50;;;12.20;;
39128;SDS011;24864;49.940;19.770;2023-11-21T05:45:08;22.52;;;12.85;;
39128;SDS011;24864;49.940;19.770;2023-11-21T05:47:37;23.88;;;13.13;;
39128;SDS011;24864;49.940;19.770;2023-11-21T05:50:07;25.75;;;14.43;;
39128;SDS011;24864;49.940;19.770;2023-11-21T05:52:39;32.78;;;12.75;;
39128;SDS011;24864;49.940;19.770;2023-11-21T05:55:08;27.50;;;15.25;;
39128;SDS011;24864;49.940;19.770;2023-11-21T05:57:38;22.25;;;14.88;;
39128;SDS011;24864;49.940;19.770;2023-11-21T06:00:07;29.38;;;15.02;;
39128;SDS011;24864;49.940;19.770;2023-11-21T06:02:42;30.77;;;15.15;;
39128;SDS011;24864;49.940;19.770;2023-11-21T06:05:11;29.42;;;14.32;;
39128;SDS011;24864;49.940;19.770;2023-11-21T06:07:40;27.83;;;15.13;;
39128;SDS011;24864;49.940;19.770;2023-11-21T06:10:10;37.05;;;18.23;;
39128;SDS011;24864;49.940;19.770;2023-11-21T06:12:41;38.42;;;18.95;;
39128;SDS011;24864;49.940;19.770;2023-11-21T06:15:10;40.45;;;20.35;;
39128;SDS011;24864;49.940;19.770;2023-11-21T06:17:41;39.60;;;20.15;;
39128;SDS011;24864;49.940;19.770;2023-11-21T06:20:11;47.15;;;21.38;;
39128;SDS011;24864;49.940;19.770;2023-11-21T06:22:42;42.38;;;20.52;;
39128;SDS011;24864;49.940;19.770;2023-11-21T06:25:12;45.20;;;20.52;;
39128;SDS011;24864;49.940;19.770;2023-11-21T06:27:41;40.58;;;20.75;;
39128;SDS011;24864;49.940;19.770;2023-11-21T06:30:11;31.05;;;18.45;;
39128;SDS011;24864;49.940;19.770;2023-11-21T06:32:40;39.58;;;18.50;;
39128;SDS011;24864;49.940;19.770;2023-11-21T06:35:13;35.33;;;16.65;;
39128;SDS011;24864;49.940;19.770;2023-11-21T06:37:43;23.10;;;15.07;;
39128;SDS011;24864;49.940;19.770;2023-11-21T06:40:18;22.95;;;13.15;;
39128;SDS011;24864;49.940;19.770;2023-11-21T06:42:47;21.30;;;12.63;;
39128;SDS011;24864;49.940;19.770;2023-11-21T06:45:17;26.80;;;13.77;;
39128;SDS011;24864;49.940;19.770;2023-11-21T06:47:46;24.60;;;12.80;;
39128;SDS011;24864;49.940;19.770;2023-11-21T06:50:16;22.02;;;12.38;;
39128;SDS011;24864;49.940;19.770;2023-11-21T06:52:44;18.67;;;11.75;;
39128;SDS011;24864;49.940;19.770;2023-11-21T06:55:13;28.27;;;12.68;;
39128;SDS011;24864;49.940;19.770;2023-11-21T06:57:43;15.65;;;11.07;;
39128;SDS011;24864;49.940;19.770;2023-11-21T07:00:15;14.80;;;10.98;;
39128;SDS011;24864;49.940;19.770;2023-11-21T07:02:45;18.77;;;10.52;;
39128;SDS011;24864;49.940;19.770;2023-11-21T07:05:14;18.75;;;9.43;;
39128;SDS011;24864;49.940;19.770;2023-11-21T07:07:47;20.90;;;9.88;;
39128;SDS011;24864;49.940;19.770;2023-11-21T07:10:16;16.73;;;8.88;;
39128;SDS011;24864;49.940;19.770;2023-11-21T07:12:46;19.35;;;10.77;;
39128;SDS011;24864;49.940;19.770;2023-11-21T07:15:15;17.02;;;10.10;;
39128;SDS011;24864;49.940;19.770;2023-11-21T07:17:46;11.20;;;8.65;;
39128;SDS011;24864;49.940;19.770;2023-11-21T07:20:15;14.63;;;9.20;;
39128;SDS011;24864;49.940;19.770;2023-11-21T07:22:44;14.48;;;8.30;;
39128;SDS011;24864;49.940;19.770;2023-11-21T07:25:13;17.67;;;9.15;;
39128;SDS011;24864;49.940;19.770;2023-11-21T07:27:42;16.40;;;9.00;;
39128;SDS011;24864;49.940;19.770;2023-11-21T07:30:13;14.20;;;8.60;;
39128;SDS011;24864;49.940;19.770;2023-11-21T07:38:19;10.25;;;7.57;;
39128;SDS011;24864;49.940;19.770;2023-11-21T07:40:48;15.95;;;8.93;;
39128;SDS011;24864;49.940;19.770;2023-11-21T07:43:16;14.05;;;8.00;;
39128;SDS011;24864;49.940;19.770;2023-11-21T07:45:47;11.68;;;7.95;;
39128;SDS011;24864;49.940;19.770;2023-11-21T07:48:16;15.88;;;9.23;;
39128;SDS011;24864;49.940;19.770;2023-11-21T07:50:44;17.58;;;9.15;;
39128;SDS011;24864;49.940;19.770;2023-11-21T07:53:14;14.23;;;9.35;;
39128;SDS011;24864;49.940;19.770;2023-11-21T07:55:43;17.17;;;8.70;;
39128;SDS011;24864;49.940;19.770;2023-11-21T07:58:13;18.20;;;9.45;;
39128;SDS011;24864;49.940;19.770;2023-11-21T08:00:42;19.67;;;9.82;;
39128;SDS011;24864;49.940;19.770;2023-11-21T08:03:12;14.40;;;9.05;;
39128;SDS011;24864;49.940;19.770;2023-11-21T08:05:41;13.20;;;9.52;;
39128;SDS011;24864;49.940;19.770;2023-11-21T08:10:45;16.35;;;9.25;;
39128;SDS011;24864;49.940;19.770;2023-11-21T08:13:47;12.95;;;8.70;;
39128;SDS011;24864;49.940;19.770;2023-11-21T08:18:30;13.30;;;8.68;;
39128;SDS011;24864;49.940;19.770;2023-11-21T08:20:59;17.02;;;8.18;;
39128;SDS011;24864;49.940;19.770;2023-11-21T08:23:28;12.57;;;8.63;;
39128;SDS011;24864;49.940;19.770;2023-11-21T08:29:18;15.07;;;8.13;;
39128;SDS011;24864;49.940;19.770;2023-11-21T08:33:04;14.02;;;8.70;;
39128;SDS011;24864;49.940;19.770;2023-11-21T08:35:32;18.48;;;9.18;;
39128;SDS011;24864;49.940;19.770;2023-11-21T08:38:01;13.07;;;8.18;;
39128;SDS011;24864;49.940;19.770;2023-11-21T08:40:30;12.93;;;8.30;;
39128;SDS011;24864;49.940;19.770;2023-11-21T08:42:58;16.80;;;8.88;;
39128;SDS011;24864;49.940;19.770;2023-11-21T08:45:27;10.80;;;8.13;;
39128;SDS011;24864;49.940;19.770;2023-11-21T08:47:55;15.50;;;9.23;;
39128;SDS011;24864;49.940;19.770;2023-11-21T08:50:25;12.43;;;8.30;;
39128;SDS011;24864;49.940;19.770;2023-11-21T08:52:54;15.50;;;9.27;;
39128;SDS011;24864;49.940;19.770;2023-11-21T08:55:22;15.30;;;9.10;;
39128;SDS011;24864;49.940;19.770;2023-11-21T08:57:51;15.52;;;9.52;;
39128;SDS011;24864;49.940;19.770;2023-11-21T09:00:19;19.02;;;10.80;;
39128;SDS011;24864;49.940;19.770;2023-11-21T09:02:48;17.70;;;9.68;;
39128;SDS011;24864;49.940;19.770;2023-11-21T09:05:17;12.15;;;8.77;;
39128;SDS011;24864;49.940;19.770;2023-11-21T09:07:48;18.77;;;9.23;;
39128;SDS011;24864;49.940;19.770;2023-11-21T09:10:17;13.88;;;7.60;;
39128;SDS011;24864;49.940;19.770;2023-11-21T09:12:45;17.73;;;9.43;;
39128;SDS011;24864;49.940;19.770;2023-11-21T09:15:14;16.10;;;8.23;;
39128;SDS011;24864;49.940;19.770;2023-11-21T09:17:42;13.32;;;9.25;;
39128;SDS011;24864;49.940;19.770;2023-11-21T09:20:12;21.83;;;9.48;;
39128;SDS011;24864;49.940;19.770;2023-11-21T09:22:41;19.33;;;9.88;;
39128;SDS011;24864;49.940;19.770;2023-11-21T09:25:13;20.48;;;10.07;;
39128;SDS011;24864;49.940;19.770;2023-11-21T09:27:41;15.25;;;8.93;;
39128;SDS011;24864;49.940;19.770;2023-11-21T09:30:10;12.82;;;8.20;;
39128;SDS011;24864;49.940;19.770;2023-11-21T09:32:40;13.52;;;8.10;;
39128;SDS011;24864;49.940;19.770;2023-11-21T09:35:12;15.20;;;9.13;;
39128;SDS011;24864;49.940;19.770;2023-11-21T09:37:42;12.80;;;8.50;;
39128;SDS011;24864;49.940;19.770;2023-11-21T09:40:17;16.55;;;9.23;;
39128;SDS011;24864;49.940;19.770;2023-11-21T09:42:52;15.07;;;8.48;;
39128;SDS011;24864;49.940;19.770;2023-11-21T09:45:25;17.17;;;8.75;;
39128;SDS011;24864;49.940;19.770;2023-11-21T09:47:54;12.40;;;8.43;;
39128;SDS011;24864;49.940;19.770;2023-11-21T09:50:24;15.05;;;9.07;;
39128;SDS011;24864;49.940;19.770;2023-11-21T09:53:03;14.68;;;8.57;;
39128;SDS011;24864;49.940;19.770;2023-11-21T09:55:42;17.02;;;9.30;;
39128;SDS011;24864;49.940;19.770;2023-11-21T09:58:12;22.80;;;10.20;;
39128;SDS011;24864;49.940;19.770;2023-11-21T10:00:41;11.27;;;7.60;;
39128;SDS011;24864;49.940;19.770;2023-11-21T10:03:10;17.25;;;8.82;;
39128;SDS011;24864;49.940;19.770;2023-11-21T10:05:40;12.55;;;8.00;;
39128;SDS011;24864;49.940;19.770;2023-11-21T10:08:10;15.13;;;8.68;;
39128;SDS011;24864;49.940;19.770;2023-11-21T10:10:41;12.82;;;6.47;;
39128;SDS011;24864;49.940;19.770;2023-11-21T10:13:15;51.75;;;31.40;;
39128;SDS011;24864;49.940;19.770;2023-11-21T10:15:45;13.15;;;7.22;;
39128;SDS011;24864;49.940;19.770;2023-11-21T10:18:17;24.17;;;7.25;;
39128;SDS011;24864;49.940;19.770;2023-11-21T10:20:46;11.30;;;6.22;;
39128;SDS011;24864;49.940;19.770;2023-11-21T10:23:20;13.98;;;6.75;;
39128;SDS011;24864;49.940;19.770;2023-11-21T10:25:52;13.20;;;5.40;;
39128;SDS011;24864;49.940;19.770;2023-11-21T10:28:24;8.55;;;5.25;;
39128;SDS011;24864;49.940;19.770;2023-11-21T10:30:52;12.95;;;5.78;;
39128;SDS011;24864;49.940;19.770;2023-11-21T10:33:26;8.40;;;5.05;;
39128;SDS011;24864;49.940;19.770;2023-11-21T10:35:56;8.25;;;4.68;;
39128;SDS011;24864;49.940;19.770;2023-11-21T10:38:24;12.43;;;5.15;;
39128;SDS011;24864;49.940;19.770;2023-11-21T10:40:55;11.00;;;5.78;;
39128;SDS011;24864;49.940;19.770;2023-11-21T10:43:24;11.30;;;5.38;;
39128;SDS011;24864;49.940;19.770;2023-11-21T10:45:54;10.50;;;5.85;;
39128;SDS011;24864;49.940;19.770;2023-11-21T10:48:26;9.18;;;5.95;;
39128;SDS011;24864;49.940;19.770;2023-11-21T10:50:55;7.97;;;5.20;;
39128;SDS011;24864;49.940;19.770;2023-11-21T10:53:24;12.98;;;7.20;;
39128;SDS011;24864;49.940;19.770;2023-11-21T10:56:03;11.88;;;5.55;;
39128;SDS011;24864;49.940;19.770;2023-11-21T10:58:34;10.18;;;4.70;;
39128;SDS011;24864;49.940;19.770;2023-11-21T11:01:05;10.90;;;5.47;;
39128;SDS011;24864;49.940;19.770;2023-11-21T11:03:34;7.78;;;4.80;;
39128;SDS011;24864;49.940;19.770;2023-11-21T11:06:05;9.40;;;4.95;;
39128;SDS011;24864;49.940;19.770;2023-11-21T11:08:38;11.30;;;5.72;;
39128;SDS011;24864;49.940;19.770;2023-11-21T11:11:09;15.82;;;6.78;;
39128;SDS011;24864;49.940;19.770;2023-11-21T11:13:38;9.90;;;5.05;;
39128;SDS011;24864;49.940;19.770;2023-11-21T11:16:07;7.10;;;4.80;;
39128;SDS011;24864;49.940;19.770;2023-11-21T11:18:37;11.73;;;5.85;;
39128;SDS011;24864;49.940;19.770;2023-11-21T11:21:07;11.65;;;5.53;;
39128;SDS011;24864;49.940;19.770;2023-11-21T11:23:44;10.75;;;5.47;;
39128;SDS011;24864;49.940;19.770;2023-11-21T11:26:20;9.35;;;5.85;;
39128;SDS011;24864;49.940;19.770;2023-11-21T11:28:57;6.88;;;4.93;;
39128;SDS011;24864;49.940;19.770;2023-11-21T11:31:37;10.48;;;6.30;;
39128;SDS011;24864;49.940;19.770;2023-11-21T11:34:11;11.55;;;6.85;;
39128;SDS011;24864;49.940;19.770;2023-11-21T11:36:47;14.80;;;7.43;;
39128;SDS011;24864;49.940;19.770;2023-11-21T11:39:29;10.57;;;6.05;;
39128;SDS011;24864;49.940;19.770;2023-11-21T11:42:01;8.82;;;5.57;;
39128;SDS011;24864;49.940;19.770;2023-11-21T11:44:46;9.43;;;5.60;;
39128;SDS011;24864;49.940;19.770;2023-11-21T11:47:25;12.45;;;6.93;;
39128;SDS011;24864;49.940;19.770;2023-11-21T11:50:01;8.97;;;5.77;;
39128;SDS011;24864;49.940;19.770;2023-11-21T11:52:34;7.88;;;4.70;;
39128;SDS011;24864;49.940;19.770;2023-11-21T11:55:06;10.55;;;5.55;;
39128;SDS011;24864;49.940;19.770;2023-11-21T11:57:38;10.27;;;6.05;;
39128;SDS011;24864;49.940;19.770;2023-11-21T12:00:07;13.73;;;8.40;;
39128;SDS011;24864;49.940;19.770;2023-11-21T12:02:44;14.02;;;7.78;;
39128;SDS011;24864;49.940;19.770;2023-11-21T12:05:14;16.08;;;8.30;;
39128;SDS011;24864;49.940;19.770;2023-11-21T12:07:45;17.35;;;7.28;;
39128;SDS011;24864;49.940;19.770;2023-11-21T12:10:16;12.38;;;9.30;;
39128;SDS011;24864;49.940;19.770;2023-11-21T12:12:47;13.38;;;9.00;;
39128;SDS011;24864;49.940;19.770;2023-11-21T12:15:16;15.63;;;10.02;;
39128;SDS011;24864;49.940;19.770;2023-11-21T12:17:45;18.95;;;10.10;;
39128;SDS011;24864;49.940;19.770;2023-11-21T12:20:16;15.05;;;9.80;;
39128;SDS011;24864;49.940;19.770;2023-11-21T12:22:47;20.63;;;10.27;;
39128;SDS011;24864;49.940;19.770;2023-11-21T12:25:16;17.80;;;9.57;;
39128;SDS011;24864;49.940;19.770;2023-11-21T12:27:47;18.52;;;9.52;;
39128;SDS011;24864;49.940;19.770;2023-11-21T12:30:17;17.17;;;10.02;;
39128;SDS011;24864;49.940;19.770;2023-11-21T12:32:49;14.55;;;9.23;;
39128;SDS011;24864;49.940;19.770;2023-11-21T12:35:19;20.67;;;9.57;;
39128;SDS011;24864;49.940;19.770;2023-11-21T12:37:49;16.27;;;9.48;;
39128;SDS011;24864;49.940;19.770;2023-11-21T12:40:18;13.45;;;9.38;;
39128;SDS011;24864;49.940;19.770;2023-11-21T12:42:51;13.82;;;8.50;;
39128;SDS011;24864;49.940;19.770;2023-11-21T12:45:21;12.23;;;7.70;;
39128;SDS011;24864;49.940;19.770;2023-11-21T12:47:55;15.85;;;9.25;;
39128;SDS011;24864;49.940;19.770;2023-11-21T12:50:27;18.88;;;8.95;;
39128;SDS011;24864;49.940;19.770;2023-11-21T12:52:59;14.48;;;8.25;;
39128;SDS011;24864;49.940;19.770;2023-11-21T12:55:30;24.35;;;10.15;;
39128;SDS011;24864;49.940;19.770;2023-11-21T12:58:02;14.18;;;9.25;;
39128;SDS011;24864;49.940;19.770;2023-11-21T13:00:37;17.90;;;10.35;;
39128;SDS011;24864;49.940;19.770;2023-11-21T13:03:09;17.05;;;10.45;;
39128;SDS011;24864;49.940;19.770;2023-11-21T13:05:40;19.55;;;10.90;;
39128;SDS011;24864;49.940;19.770;2023-11-21T13:08:14;17.02;;;10.30;;
39128;SDS011;24864;49.940;19.770;2023-11-21T13:10:48;19.38;;;10.75;;
39128;SDS011;24864;49.940;19.770;2023-11-21T13:13:19;22.60;;;11.43;;
39128;SDS011;24864;49.940;19.770;2023-11-21T13:15:50;16.33;;;11.75;;
39128;SDS011;24864;49.940;19.770;2023-11-21T13:18:23;21.63;;;10.85;;
39128;SDS011;24864;49.940;19.770;2023-11-21T13:20:54;22.80;;;11.50;;
39128;SDS011;24864;49.940;19.770;2023-11-21T13:23:23;18.00;;;10.90;;
39128;SDS011;24864;49.940;19.770;2023-11-21T13:25:52;31.25;;;13.80;;
39128;SDS011;24864;49.940;19.770;2023-11-21T13:28:32;21.73;;;11.18;;
39128;SDS011;24864;49.940;19.770;2023-11-21T13:31:02;27.70;;;13.30;;
39128;SDS011;24864;49.940;19.770;2023-11-21T13:33:38;17.77;;;11.25;;
39128;SDS011;24864;49.940;19.770;2023-11-21T13:36:09;18.17;;;11.02;;
39128;SDS011;24864;49.940;19.770;2023-11-21T13:38:41;19.87;;;11.50;;
39128;SDS011;24864;49.940;19.770;2023-11-21T13:41:10;26.42;;;11.00;;
39128;SDS011;24864;49.940;19.770;2023-11-21T13:43:42;20.65;;;9.15;;
39128;SDS011;24864;49.940;19.770;2023-11-21T13:46:14;17.80;;;10.48;;
39128;SDS011;24864;49.940;19.770;2023-11-21T13:48:48;12.65;;;8.85;;
39128;SDS011;24864;49.940;19.770;2023-11-21T13:51:23;17.42;;;8.88;;
39128;SDS011;24864;49.940;19.770;2023-11-21T13:53:58;15.48;;;8.65;;
39128;SDS011;24864;49.940;19.770;2023-11-21T13:56:27;16.25;;;9.43;;
39128;SDS011;24864;49.940;19.770;2023-11-21T13:58:57;18.98;;;11.00;;
39128;SDS011;24864;49.940;19.770;2023-11-21T14:01:32;20.58;;;11.43;;
39128;SDS011;24864;49.940;19.770;2023-11-21T14:04:21;23.52;;;10.98;;
39128;SDS011;24864;49.940;19.770;2023-11-21T14:07:02;15.93;;;9.25;;
39128;SDS011;24864;49.940;19.770;2023-11-21T14:09:47;22.77;;;11.20;;
39128;SDS011;24864;49.940;19.770;2023-11-21T14:12:16;20.98;;;12.00;;
39128;SDS011;24864;49.940;19.770;2023-11-21T14:14:46;14.57;;;8.75;;
39128;SDS011;24864;49.940;19.770;2023-11-21T14:17:15;13.10;;;7.38;;
39128;SDS011;24864;49.940;19.770;2023-11-21T14:19:48;12.48;;;7.70;;
39128;SDS011;24864;49.940;19.770;2023-11-21T14:22:17;13.93;;;7.72;;
39128;SDS011;24864;49.940;19.770;2023-11-21T14:24:45;12.85;;;7.70;;
39128;SDS011;24864;49.940;19.770;2023-11-21T14:27:14;11.77;;;7.18;;
39128;SDS011;24864;49.940;19.770;2023-11-21T14:29:43;10.27;;;7.15;;
39128;SDS011;24864;49.940;19.770;2023-11-21T14:32:13;15.63;;;7.47;;
39128;SDS011;24864;49.940;19.770;2023-11-21T14:34:43;13.15;;;8.15;;
39128;SDS011;24864;49.940;19.770;2023-11-21T14:37:14;14.70;;;8.32;;
39128;SDS011;24864;49.940;19.770;2023-11-21T14:39:42;14.75;;;8.32;;
39128;SDS011;24864;49.940;19.770;2023-11-21T14:42:14;12.07;;;8.25;;
39128;SDS011;24864;49.940;19.770;2023-11-21T14:44:48;15.45;;;9.15;;
39128;SDS011;24864;49.940;19.770;2023-11-21T14:47:17;18.45;;;8.75;;
39128;SDS011;24864;49.940;19.770;2023-11-21T14:49:52;15.07;;;8.52;;
39128;SDS011;24864;49.940;19.770;2023-11-21T14:52:21;20.20;;;11.70;;
39128;SDS011;24864;49.940;19.770;2023-11-21T14:54:59;23.80;;;12.07;;
39128;SDS011;24864;49.940;19.770;2023-11-21T15:00:16;22.55;;;11.07;;
39128;SDS011;24864;49.940;19.770;2023-11-21T15:03:06;25.52;;;11.80;;
39128;SDS011;24864;49.940;19.770;2023-11-21T15:05:37;22.95;;;11.18;;